This demonstration page uses our WeatherBlox Daily Observations layout. Learn more.

Hourly Observations for October 2, 2020

Temp ( °F °C ) Dew Point ( °F °C ) Humidity (%) Winds ( mph kmh ) Pressure ( in mb ) Visibility ( mi km ) Precip ( " mm )
12:54 am 00:54 Clear 35 1.7 30 -1.1 82 82 Calm 30.32 1027 10 16.0934 0 0
1:54 am 01:54 Clear 34 1.1 30 -1.1 85 85 N 3 6 30.32 1027 10 16.0934 0 0
3:54 am 03:54 Clear 34 1.1 30 -1.1 85 85 N 3 6 30.3 1026 10 16.0934 0 0
4:54 am 04:54 Clear 36 2.2 31 -0.6 82 82 Calm 30.3 1026 10 16.0934 0 0
5:54 am 05:54 Clear 34 1.1 29 -1.7 82 82 N 3 6 30.3 1026 10 16.0934 0 0
6:54 am 06:54 Clear 32 0 28 -2.2 85 85 N 3 6 30.31 1027 10 16.0934 0 0
7:54 am 07:54 Sunny 37 2.8 32 0 82 82 Calm 30.32 1027 10 16.0934 0 0
8:54 am 08:54 Sunny 40 4.4 33 0.6 77 77 Calm 30.32 1027 10 16.0934 0 0
9:54 am 09:54 Sunny 48 8.9 36 2.2 63 63 Calm 30.29 1026 10 16.0934 0 0
10:54 am 10:54 Sunny 53 11.7 35 1.7 51 51 SSE 5 7 30.27 1025 10 16.0934 0 0
11:54 am 11:54 Sunny 57 13.9 34 1.1 42 42 ESE 8 13 30.26 1025 10 16.0934 0 0
12:54 pm 12:54 Sunny 61 16.1 34 1.1 36 36 VRB 3 6 30.21 1023 10 16.0934 0 0
1:54 pm 13:54 Sunny 63 17.2 34 1.1 34 34 S 8 13 30.16 1021 10 16.0934 0 0
2:54 pm 14:54 Sunny 65 18.3 34 1.1 32 32 S 12 19 30.11 1020 10 16.0934 0 0
3:54 pm 15:54 Sunny 64 17.8 33 0.6 32 32 SE 10 17 30.08 1019 10 16.0934 0 0
4:54 pm 16:54 Partly Cloudy 64 17.8 33 0.6 32 32 SSE 12 19 30.06 1018 10 16.0934 0 0
5:54 pm 17:54 Sunny 64 17.8 33 0.6 32 32 SE 8 13 30.06 1018 10 16.0934 0 0
6:54 pm 18:54 Mostly Cloudy 61 16.1 34 1.1 36 36 SE 8 13 30.05 1018 10 16.0934 0 0
7:54 pm 19:54 Mostly Clear 60 15.6 35 1.7 39 39 ESE 12 19 30.03 1017 10 16.0934 0 0
8:54 pm 20:54 Cloudy 58 14.4 35 1.7 42 42 E 10 17 30.04 1017 10 16.0934 0 0
9:54 pm 21:54 Cloudy 58 14.4 35 1.7 42 42 E 9 15 30.06 1018 10 16.0934 0 0
10:54 pm 22:54 Cloudy 55 12.8 38 3.3 53 53 E 9 15 30.07 1018 10 16.0934 0.001 0.001

Powered by AerisWeather